sensor_id;sensor_type;location;lat;lon;timestamp;pressure;altitude;pressure_sealevel;temperature;humidity
47054;BME280;32811;52.382;5.270;2023-03-12T00:00:00;101221.53;;;-0.89;100.00
47054;BME280;32811;52.382;5.270;2023-03-12T00:02:28;101176.13;;;-1.16;100.00
47054;BME280;32811;52.382;5.270;2023-03-12T00:04:55;101182.81;;;-1.16;100.00
47054;BME280;32811;52.382;5.270;2023-03-12T00:07:23;101186.50;;;-1.11;100.00
47054;BME280;32811;52.382;5.270;2023-03-12T00:09:55;101194.38;;;-1.07;100.00
47054;BME280;32811;52.382;5.270;2023-03-12T00:12:24;101138.28;;;-1.28;100.00
47054;BME280;32811;52.382;5.270;2023-03-12T00:14:54;101153.50;;;-1.13;100.00
47054;BME280;32811;52.382;5.270;2023-03-12T00:17:24;101146.75;;;-1.12;100.00
47054;BME280;32811;52.382;5.270;2023-03-12T00:19:55;101164.34;;;-1.00;100.00
47054;BME280;32811;52.382;5.270;2023-03-12T00:22:29;101159.53;;;-1.11;100.00
47054;BME280;32811;52.382;5.270;2023-03-12T00:24:58;101151.66;;;-1.15;100.00
47054;BME280;32811;52.382;5.270;2023-03-12T00:27:26;101178.38;;;-0.91;100.00
47054;BME280;32811;52.382;5.270;2023-03-12T00:29:59;101159.16;;;-1.02;100.00
47054;BME280;32811;52.382;5.270;2023-03-12T00:32:37;101153.41;;;-0.99;100.00
47054;BME280;32811;52.382;5.270;2023-03-12T00:35:16;101147.72;;;-0.95;100.00
47054;BME280;32811;52.382;5.270;2023-03-12T00:37:49;101151.63;;;-0.86;100.00
47054;BME280;32811;52.382;5.270;2023-03-12T00:40:16;101159.81;;;-0.75;100.00
47054;BME280;32811;52.382;5.270;2023-03-12T00:42:46;101146.34;;;-0.74;100.00
47054;BME280;32811;52.382;5.270;2023-03-12T00:45:21;101120.69;;;-0.80;100.00
47054;BME280;32811;52.382;5.270;2023-03-12T00:48:00;101147.03;;;-0.61;100.00
47054;BME280;32811;52.382;5.270;2023-03-12T00:50:38;101117.13;;;-0.67;100.00
47054;BME280;32811;52.382;5.270;2023-03-12T00:53:15;101158.13;;;-0.28;100.00
47054;BME280;32811;52.382;5.270;2023-03-12T00:55:50;101121.31;;;-0.53;100.00
47054;BME280;32811;52.382;5.270;2023-03-12T00:58:42;101094.75;;;-0.59;100.00
47054;BME280;32811;52.382;5.270;2023-03-12T01:01:13;101116.00;;;-0.41;100.00
47054;BME280;32811;52.382;5.270;2023-03-12T01:03:51;101122.84;;;-0.40;100.00
47054;BME280;32811;52.382;5.270;2023-03-12T01:06:22;101099.25;;;-0.54;100.00
47054;BME280;32811;52.382;5.270;2023-03-12T01:08:48;101127.09;;;-0.39;100.00
47054;BME280;32811;52.382;5.270;2023-03-12T01:11:19;101122.41;;;-0.48;100.00
47054;BME280;32811;52.382;5.270;2023-03-12T01:13:48;101077.53;;;-0.65;100.00
47054;BME280;32811;52.382;5.270;2023-03-12T01:16:15;101147.25;;;-0.26;100.00
47054;BME280;32811;52.382;5.270;2023-03-12T01:18:45;101103.66;;;-0.51;100.00
47054;BME280;32811;52.382;5.270;2023-03-12T01:21:14;101118.44;;;-0.43;100.00
47054;BME280;32811;52.382;5.270;2023-03-12T01:23:58;101088.81;;;-0.60;100.00
47054;BME280;32811;52.382;5.270;2023-03-12T01:26:28;101091.41;;;-0.58;100.00
47054;BME280;32811;52.382;5.270;2023-03-12T01:28:57;101087.78;;;-0.64;100.00
47054;BME280;32811;52.382;5.270;2023-03-12T01:31:28;101127.72;;;-0.43;100.00
47054;BME280;32811;52.382;5.270;2023-03-12T01:34:03;101089.44;;;-0.64;100.00
47054;BME280;32811;52.382;5.270;2023-03-12T01:36:30;101116.63;;;-0.45;100.00
47054;BME280;32811;52.382;5.270;2023-03-12T01:38:58;101114.19;;;-0.44;100.00
47054;BME280;32811;52.382;5.270;2023-03-12T01:41:27;101078.44;;;-0.65;100.00
47054;BME280;32811;52.382;5.270;2023-03-12T01:43:55;101084.00;;;-0.55;100.00
47054;BME280;32811;52.382;5.270;2023-03-12T01:46:36;101129.66;;;-0.23;100.00
47054;BME280;32811;52.382;5.270;2023-03-12T01:49:16;101102.38;;;-0.43;100.00
47054;BME280;32811;52.382;5.270;2023-03-12T01:51:54;101075.75;;;-0.51;100.00
47054;BME280;32811;52.382;5.270;2023-03-12T01:54:33;101080.41;;;-0.43;100.00
47054;BME280;32811;52.382;5.270;2023-03-12T01:57:09;101081.56;;;-0.37;100.00
47054;BME280;32811;52.382;5.270;2023-03-12T01:59:56;101052.75;;;-0.54;100.00
47054;BME280;32811;52.382;5.270;2023-03-12T02:02:31;101096.84;;;-0.19;100.00
47054;BME280;32811;52.382;5.270;2023-03-12T02:05:18;101073.63;;;-0.27;100.00
47054;BME280;32811;52.382;5.270;2023-03-12T02:07:47;101081.00;;;-0.15;100.00
47054;BME280;32811;52.382;5.270;2023-03-12T02:10:24;101088.13;;;-0.08;100.00
47054;BME280;32811;52.382;5.270;2023-03-12T02:12:56;101073.00;;;-0.07;100.00
47054;BME280;32811;52.382;5.270;2023-03-12T02:15:25;101063.63;;;-0.08;100.00
47054;BME280;32811;52.382;5.270;2023-03-12T02:17:57;101047.63;;;-0.07;100.00
47054;BME280;32811;52.382;5.270;2023-03-12T02:20:51;101067.16;;;0.12;100.00
47054;BME280;32811;52.382;5.270;2023-03-12T02:23:37;101038.00;;;0.04;100.00
47054;BME280;32811;52.382;5.270;2023-03-12T02:26:13;101025.31;;;0.04;100.00
47054;BME280;32811;52.382;5.270;2023-03-12T02:28:46;101029.41;;;0.18;100.00
47054;BME280;32811;52.382;5.270;2023-03-12T02:31:19;101028.16;;;0.10;100.00
47054;BME280;32811;52.382;5.270;2023-03-12T02:34:01;101032.50;;;0.13;100.00
47054;BME280;32811;52.382;5.270;2023-03-12T02:36:38;101030.56;;;0.07;100.00
47054;BME280;32811;52.382;5.270;2023-03-12T02:39:11;100997.88;;;-0.03;100.00
47054;BME280;32811;52.382;5.270;2023-03-12T02:41:49;101022.28;;;0.11;100.00
47054;BME280;32811;52.382;5.270;2023-03-12T02:44:25;100998.50;;;0.09;100.00
47054;BME280;32811;52.382;5.270;2023-03-12T02:46:59;100981.22;;;0.02;100.00
47054;BME280;32811;52.382;5.270;2023-03-12T02:49:33;100972.69;;;0.00;100.00
47054;BME280;32811;52.382;5.270;2023-03-12T02:52:06;101012.72;;;0.24;100.00
47054;BME280;32811;52.382;5.270;2023-03-12T02:54:37;100999.19;;;0.23;100.00
47054;BME280;32811;52.382;5.270;2023-03-12T02:57:10;100971.38;;;0.08;100.00
47054;BME280;32811;52.382;5.270;2023-03-12T02:59:37;100984.50;;;0.17;100.00
47054;BME280;32811;52.382;5.270;2023-03-12T03:02:11;101011.81;;;0.39;100.00
47054;BME280;32811;52.382;5.270;2023-03-12T03:04:39;101005.06;;;0.40;100.00
47054;BME280;32811;52.382;5.270;2023-03-12T03:07:08;101009.44;;;0.43;100.00
47054;BME280;32811;52.382;5.270;2023-03-12T03:09:42;100972.72;;;0.18;100.00
47054;BME280;32811;52.382;5.270;2023-03-12T03:12:15;100975.75;;;0.29;100.00
47054;BME280;32811;52.382;5.270;2023-03-12T03:14:56;100985.41;;;0.36;100.00
47054;BME280;32811;52.382;5.270;2023-03-12T03:17:25;100947.31;;;0.18;100.00
47054;BME280;32811;52.382;5.270;2023-03-12T03:19:52;100940.78;;;0.23;100.00
47054;BME280;32811;52.382;5.270;2023-03-12T03:22:20;100977.19;;;0.41;100.00
47054;BME280;32811;52.382;5.270;2023-03-12T03:24:54;100951.16;;;0.28;100.00
47054;BME280;32811;52.382;5.270;2023-03-12T03:27:26;100956.88;;;0.41;100.00
47054;BME280;32811;52.382;5.270;2023-03-12T03:29:56;100915.75;;;0.31;100.00
47054;BME280;32811;52.382;5.270;2023-03-12T03:32:26;100941.44;;;0.55;100.00
47054;BME280;32811;52.382;5.270;2023-03-12T03:34:58;100894.28;;;0.42;100.00
47054;BME280;32811;52.382;5.270;2023-03-12T03:37:34;100898.69;;;0.46;100.00
47054;BME280;32811;52.382;5.270;2023-03-12T03:40:06;100919.63;;;0.60;100.00
47054;BME280;32811;52.382;5.270;2023-03-12T03:42:39;100906.31;;;0.46;100.00
47054;BME280;32811;52.382;5.270;2023-03-12T03:45:07;100882.97;;;0.35;100.00
47054;BME280;32811;52.382;5.270;2023-03-12T03:47:49;100925.47;;;0.57;100.00
47054;BME280;32811;52.382;5.270;2023-03-12T03:50:20;100888.84;;;0.34;100.00
47054;BME280;32811;52.382;5.270;2023-03-12T03:53:04;100945.69;;;0.74;100.00
47054;BME280;32811;52.382;5.270;2023-03-12T03:55:35;100892.69;;;0.44;100.00
47054;BME280;32811;52.382;5.270;2023-03-12T03:58:14;100886.00;;;0.46;100.00
47054;BME280;32811;52.382;5.270;2023-03-12T04:00:50;100892.88;;;0.49;100.00
47054;BME280;32811;52.382;5.270;2023-03-12T04:03:26;100871.59;;;0.45;100.00
47054;BME280;32811;52.382;5.270;2023-03-12T04:05:55;100868.38;;;0.49;100.00
47054;BME280;32811;52.382;5.270;2023-03-12T04:08:25;100906.91;;;0.78;100.00
47054;BME280;32811;52.382;5.270;2023-03-12T04:13:55;100875.47;;;0.56;100.00
47054;BME280;32811;52.382;5.270;2023-03-12T04:16:35;100870.53;;;0.59;100.00
47054;BME280;32811;52.382;5.270;2023-03-12T04:19:05;100860.00;;;0.70;100.00
47054;BME280;32811;52.382;5.270;2023-03-12T04:21:31;100912.88;;;0.98;100.00
47054;BME280;32811;52.382;5.270;2023-03-12T04:23:58;100917.75;;;0.93;100.00
47054;BME280;32811;52.382;5.270;2023-03-12T04:26:25;100903.25;;;0.91;100.00
47054;BME280;32811;52.382;5.270;2023-03-12T04:28:51;100900.59;;;0.88;100.00
47054;BME280;32811;52.382;5.270;2023-03-12T04:31:18;100881.78;;;0.84;100.00
47054;BME280;32811;52.382;5.270;2023-03-12T04:33:45;100896.38;;;1.08;100.00
47054;BME280;32811;52.382;5.270;2023-03-12T04:36:11;100891.16;;;1.04;100.00
47054;BME280;32811;52.382;5.270;2023-03-12T04:38:39;100891.28;;;1.08;100.00
47054;BME280;32811;52.382;5.270;2023-03-12T04:41:09;100884.72;;;1.13;100.00
47054;BME280;32811;52.382;5.270;2023-03-12T04:43:36;100873.97;;;1.18;100.00
47054;BME280;32811;52.382;5.270;2023-03-12T04:46:04;100885.13;;;1.22;100.00
47054;BME280;32811;52.382;5.270;2023-03-12T04:48:31;100881.38;;;1.14;100.00
47054;BME280;32811;52.382;5.270;2023-03-12T04:50:58;100881.13;;;1.08;100.00
47054;BME280;32811;52.382;5.270;2023-03-12T04:53:25;100873.56;;;1.09;100.00
47054;BME280;32811;52.382;5.270;2023-03-12T04:55:53;100869.28;;;1.08;100.00
47054;BME280;32811;52.382;5.270;2023-03-12T04:58:20;100851.97;;;0.99;100.00
47054;BME280;32811;52.382;5.270;2023-03-12T05:00:48;100844.25;;;0.98;100.00
47054;BME280;32811;52.382;5.270;2023-03-12T05:03:15;100857.91;;;1.00;100.00
47054;BME280;32811;52.382;5.270;2023-03-12T05:05:42;100852.91;;;1.01;100.00
47054;BME280;32811;52.382;5.270;2023-03-12T05:08:09;100852.78;;;0.98;100.00
47054;BME280;32811;52.382;5.270;2023-03-12T05:10:35;100848.34;;;0.94;100.00
47054;BME280;32811;52.382;5.270;2023-03-12T05:13:02;100847.00;;;1.02;100.00
47054;BME280;32811;52.382;5.270;2023-03-12T05:15:29;100835.22;;;1.04;100.00
47054;BME280;32811;52.382;5.270;2023-03-12T05:17:55;100828.41;;;1.03;100.00
47054;BME280;32811;52.382;5.270;2023-03-12T05:20:22;100834.38;;;1.04;100.00
47054;BME280;32811;52.382;5.270;2023-03-12T05:22:48;100829.28;;;1.04;100.00
47054;BME280;32811;52.382;5.270;2023-03-12T05:25:15;100820.59;;;0.99;100.00
47054;BME280;32811;52.382;5.270;2023-03-12T05:27:42;100815.72;;;1.03;100.00
47054;BME280;32811;52.382;5.270;2023-03-12T05:30:09;100829.41;;;1.07;100.00
47054;BME280;32811;52.382;5.270;2023-03-12T05:32:36;100824.19;;;1.04;100.00
47054;BME280;32811;52.382;5.270;2023-03-12T05:35:04;100821.59;;;1.02;100.00
47054;BME280;32811;52.382;5.270;2023-03-12T05:37:30;100820.13;;;1.08;100.00
47054;BME280;32811;52.382;5.270;2023-03-12T05:39:57;100805.00;;;1.11;100.00
47054;BME280;32811;52.382;5.270;2023-03-12T05:42:24;100802.84;;;1.20;100.00
47054;BME280;32811;52.382;5.270;2023-03-12T05:44:50;100803.78;;;1.22;100.00
47054;BME280;32811;52.382;5.270;2023-03-12T05:47:18;100797.16;;;1.26;100.00
47054;BME280;32811;52.382;5.270;2023-03-12T05:49:44;100795.09;;;1.17;100.00
47054;BME280;32811;52.382;5.270;2023-03-12T05:52:11;100797.81;;;1.21;100.00
47054;BME280;32811;52.382;5.270;2023-03-12T05:54:37;100794.28;;;1.18;100.00
47054;BME280;32811;52.382;5.270;2023-03-12T05:57:04;100790.75;;;1.14;100.00
47054;BME280;32811;52.382;5.270;2023-03-12T05:59:31;100798.56;;;1.19;100.00
47054;BME280;32811;52.382;5.270;2023-03-12T06:01:57;100782.44;;;1.18;100.00
47054;BME280;32811;52.382;5.270;2023-03-12T06:04:24;100778.22;;;1.19;100.00
47054;BME280;32811;52.382;5.270;2023-03-12T06:06:51;100779.19;;;1.22;100.00
47054;BME280;32811;52.382;5.270;2023-03-12T06:09:17;100782.81;;;1.28;100.00
47054;BME280;32811;52.382;5.270;2023-03-12T06:11:44;100786.31;;;1.30;100.00
47054;BME280;32811;52.382;5.270;2023-03-12T06:14:10;100793.78;;;1.27;100.00
47054;BME280;32811;52.382;5.270;2023-03-12T06:16:38;100789.97;;;1.36;100.00
47054;BME280;32811;52.382;5.270;2023-03-12T06:19:04;100796.88;;;1.40;100.00
47054;BME280;32811;52.382;5.270;2023-03-12T06:21:33;100788.47;;;1.41;100.00
47054;BME280;32811;52.382;5.270;2023-03-12T06:24:01;100798.91;;;1.48;100.00
47054;BME280;32811;52.382;5.270;2023-03-12T06:26:27;100794.41;;;1.42;100.00
47054;BME280;32811;52.382;5.270;2023-03-12T06:28:54;100780.91;;;1.43;100.00
47054;BME280;32811;52.382;5.270;2023-03-12T06:31:22;100791.97;;;1.45;100.00
47054;BME280;32811;52.382;5.270;2023-03-12T06:33:49;100786.97;;;1.47;100.00
47054;BME280;32811;52.382;5.270;2023-03-12T06:36:16;100787.78;;;1.45;100.00
47054;BME280;32811;52.382;5.270;2023-03-12T06:38:43;100771.41;;;1.39;100.00
47054;BME280;32811;52.382;5.270;2023-03-12T06:41:12;100758.13;;;1.46;100.00
47054;BME280;32811;52.382;5.270;2023-03-12T06:43:40;100753.78;;;1.43;100.00
47054;BME280;32811;52.382;5.270;2023-03-12T06:46:08;100754.66;;;1.44;100.00
47054;BME280;32811;52.382;5.270;2023-03-12T06:48:36;100752.00;;;1.41;100.00
47054;BME280;32811;52.382;5.270;2023-03-12T06:51:08;100761.84;;;1.33;100.00
47054;BME280;32811;52.382;5.270;2023-03-12T06:53:35;100764.28;;;1.30;100.00
47054;BME280;32811;52.382;5.270;2023-03-12T06:56:02;100764.13;;;1.27;100.00
47054;BME280;32811;52.382;5.270;2023-03-12T06:58:29;100764.28;;;1.30;100.00
47054;BME280;32811;52.382;5.270;2023-03-12T07:00:56;100753.78;;;1.22;100.00
47054;BME280;32811;52.382;5.270;2023-03-12T07:03:23;100765.72;;;1.23;100.00
47054;BME280;32811;52.382;5.270;2023-03-12T07:05:50;100741.63;;;1.15;100.00
47054;BME280;32811;52.382;5.270;2023-03-12T07:08:17;100745.41;;;1.25;100.00
47054;BME280;32811;52.382;5.270;2023-03-12T07:10:45;100741.13;;;1.24;100.00
47054;BME280;32811;52.382;5.270;2023-03-12T07:13:12;100731.03;;;1.26;100.00
47054;BME280;32811;52.382;5.270;2023-03-12T07:15:38;100717.44;;;1.25;100.00
47054;BME280;32811;52.382;5.270;2023-03-12T07:18:10;100741.31;;;1.29;100.00
47054;BME280;32811;52.382;5.270;2023-03-12T07:20:42;100753.03;;;1.25;100.00
47054;BME280;32811;52.382;5.270;2023-03-12T07:23:09;100762.50;;;1.28;100.00
47054;BME280;32811;52.382;5.270;2023-03-12T07:25:38;100759.06;;;1.27;100.00
47054;BME280;32811;52.382;5.270;2023-03-12T07:28:07;100760.81;;;1.28;100.00
47054;BME280;32811;52.382;5.270;2023-03-12T07:30:34;100766.00;;;1.31;100.00
47054;BME280;32811;52.382;5.270;2023-03-12T07:33:02;100774.31;;;1.27;100.00
47054;BME280;32811;52.382;5.270;2023-03-12T07:35:30;100774.44;;;1.30;100.00
47054;BME280;32811;52.382;5.270;2023-03-12T07:37:59;100779.72;;;1.35;100.00
47054;BME280;32811;52.382;5.270;2023-03-12T07:40:26;100780.47;;;1.32;100.00
47054;BME280;32811;52.382;5.270;2023-03-12T07:42:53;100777.97;;;1.34;100.00
47054;BME280;32811;52.382;5.270;2023-03-12T07:45:20;100781.41;;;1.34;100.00
47054;BME280;32811;52.382;5.270;2023-03-12T07:47:47;100789.03;;;1.34;100.00
47054;BME280;32811;52.382;5.270;2023-03-12T07:50:15;100788.41;;;1.40;100.00
47054;BME280;32811;52.382;5.270;2023-03-12T07:52:44;100788.47;;;1.41;100.00
47054;BME280;32811;52.382;5.270;2023-03-12T07:55:11;100790.56;;;1.52;100.00
47054;BME280;32811;52.382;5.270;2023-03-12T07:57:38;100787.16;;;1.51;100.00
47054;BME280;32811;52.382;5.270;2023-03-12T08:00:06;100778.56;;;1.48;100.00
47054;BME280;32811;52.382;5.270;2023-03-12T08:02:34;100771.13;;;1.54;100.00
47054;BME280;32811;52.382;5.270;2023-03-12T08:05:00;100769.03;;;1.64;100.00
47054;BME280;32811;52.382;5.270;2023-03-12T08:07:27;100764.06;;;1.68;100.00
47054;BME280;32811;52.382;5.270;2023-03-12T08:09:58;100767.53;;;1.70;100.00
47054;BME280;32811;52.382;5.270;2023-03-12T08:12:26;100757.41;;;1.71;100.00
47054;BME280;32811;52.382;5.270;2023-03-12T08:14:53;100760.28;;;1.79;100.00
47054;BME280;32811;52.382;5.270;2023-03-12T08:17:20;100755.22;;;1.80;100.00
47054;BME280;32811;52.382;5.270;2023-03-12T08:19:47;100763.09;;;1.86;100.00
47054;BME280;32811;52.382;5.270;2023-03-12T08:22:14;100753.84;;;1.89;100.00
47054;BME280;32811;52.382;5.270;2023-03-12T08:24:40;100755.81;;;1.96;100.00
47054;BME280;32811;52.382;5.270;2023-03-12T08:27:07;100755.03;;;1.98;100.00
47054;BME280;32811;52.382;5.270;2023-03-12T08:29:34;100754.25;;;1.99;100.00
47054;BME280;32811;52.382;5.270;2023-03-12T08:32:01;100756.97;;;2.04;100.00
47054;BME280;32811;52.382;5.270;2023-03-12T08:34:33;100751.97;;;2.07;100.00
47054;BME280;32811;52.382;5.270;2023-03-12T08:37:00;100753.94;;;2.14;100.00
47054;BME280;32811;52.382;5.270;2023-03-12T08:39:28;100753.38;;;2.21;100.00
47054;BME280;32811;52.382;5.270;2023-03-12T08:41:54;100753.72;;;2.31;100.00
47054;BME280;32811;52.382;5.270;2023-03-12T08:44:22;100754.81;;;2.37;100.00
47054;BME280;32811;52.382;5.270;2023-03-12T08:46:49;100753.34;;;2.44;100.00
47054;BME280;32811;52.382;5.270;2023-03-12T08:49:16;100746.78;;;2.51;100.00
47054;BME280;32811;52.382;5.270;2023-03-12T08:51:43;100754.84;;;2.63;100.00
47054;BME280;32811;52.382;5.270;2023-03-12T08:54:10;100740.53;;;2.66;100.00
47054;BME280;32811;52.382;5.270;2023-03-12T08:56:36;100753.69;;;2.79;100.00
47054;BME280;32811;52.382;5.270;2023-03-12T08:59:08;100747.25;;;2.88;100.00
47054;BME280;32811;52.382;5.270;2023-03-12T09:01:35;100748.03;;;2.87;100.00
47054;BME280;32811;52.382;5.270;2023-03-12T09:04:03;100753.38;;;2.94;100.00
47054;BME280;32811;52.382;5.270;2023-03-12T09:06:30;100756.28;;;3.04;100.00
47054;BME280;32811;52.382;5.270;2023-03-12T09:08:58;100757.50;;;3.16;100.00
47054;BME280;32811;52.382;5.270;2023-03-12T09:11:34;100757.72;;;3.22;100.00
47054;BME280;32811;52.382;5.270;2023-03-12T09:14:02;100751.28;;;3.33;100.00
47054;BME280;32811;52.382;5.270;2023-03-12T09:16:48;100746.50;;;3.44;100.00
47054;BME280;32811;52.382;5.270;2023-03-12T09:19:15;100753.34;;;3.45;100.00
47054;BME280;32811;52.382;5.270;2023-03-12T09:21:42;100749.22;;;3.48;100.00
47054;BME280;32811;52.382;5.270;2023-03-12T09:24:09;100736.91;;;3.64;100.00
47054;BME280;32811;52.382;5.270;2023-03-12T09:26:36;100735.41;;;3.70;100.00
47054;BME280;32811;52.382;5.270;2023-03-12T09:29:03;100730.69;;;3.83;100.00
47054;BME280;32811;52.382;5.270;2023-03-12T09:31:29;100730.69;;;3.83;100.00
47054;BME280;32811;52.382;5.270;2023-03-12T09:33:56;100745.38;;;3.90;100.00
47054;BME280;32811;52.382;5.270;2023-03-12T09:36:23;100754.06;;;3.97;100.00
47054;BME280;32811;52.382;5.270;2023-03-12T09:38:49;100746.66;;;4.04;100.00
47054;BME280;32811;52.382;5.270;2023-03-12T09:41:19;100749.59;;;4.18;100.00
47054;BME280;32811;52.382;5.270;2023-03-12T09:43:58;100754.25;;;4.33;100.00
47054;BME280;32811;52.382;5.270;2023-03-12T09:49:12;100750.97;;;4.37;100.00
47054;BME280;32811;52.382;5.270;2023-03-12T09:51:44;100750.38;;;4.46;100.00
47054;BME280;32811;52.382;5.270;2023-03-12T09:54:28;100753.03;;;4.49;100.00
47054;BME280;32811;52.382;5.270;2023-03-12T09:57:00;100745.59;;;4.58;100.00
47054;BME280;32811;52.382;5.270;2023-03-12T09:59:28;100752.84;;;4.74;100.00
47054;BME280;32811;52.382;5.270;2023-03-12T10:02:04;100752.41;;;4.91;100.00
47054;BME280;32811;52.382;5.270;2023-03-12T10:04:40;100756.91;;;4.98;100.00
47054;BME280;32811;52.382;5.270;2023-03-12T10:15:16;100751.88;;;5.37;100.00
47054;BME280;32811;52.382;5.270;2023-03-12T10:28:57;100741.53;;;6.48;100.00
47054;BME280;32811;52.382;5.270;2023-03-12T10:31:28;100741.72;;;6.59;100.00
47054;BME280;32811;52.382;5.270;2023-03-12T10:33:59;100744.50;;;6.71;100.00
47054;BME280;32811;52.382;5.270;2023-03-12T10:38:59;100748.00;;;6.75;100.00
47054;BME280;32811;52.382;5.270;2023-03-12T10:41:29;100749.03;;;6.84;100.00
47054;BME280;32811;52.382;5.270;2023-03-12T10:44:05;100754.13;;;6.81;100.00
47054;BME280;32811;52.382;5.270;2023-03-12T10:54:25;100755.16;;;7.41;100.00
47054;BME280;32811;52.382;5.270;2023-03-12T10:56:52;100755.19;;;7.44;100.00
47054;BME280;32811;52.382;5.270;2023-03-12T10:59:20;100751.16;;;7.63;100.00
47054;BME280;32811;52.382;5.270;2023-03-12T11:01:50;100738.31;;;7.62;100.00
47054;BME280;32811;52.382;5.270;2023-03-12T11:04:30;100739.34;;;7.73;100.00
47054;BME280;32811;52.382;5.270;2023-03-12T11:07:14;100756.28;;;7.60;100.00
47054;BME280;32811;52.382;5.270;2023-03-12T11:09:41;100759.53;;;7.48;100.00
47054;BME280;32811;52.382;5.270;2023-03-12T11:14:48;100764.75;;;7.55;100.00
47054;BME280;32811;52.382;5.270;2023-03-12T11:17:24;100758.59;;;7.45;100.00
47054;BME280;32811;52.382;5.270;2023-03-12T11:19:51;100762.03;;;7.44;100.00
47054;BME280;32811;52.382;5.270;2023-03-12T11:22:30;100763.81;;;7.49;100.00
47054;BME280;32811;52.382;5.270;2023-03-12T11:25:02;100770.78;;;7.58;100.00
47054;BME280;32811;52.382;5.270;2023-03-12T11:27:44;100760.41;;;7.52;100.00
47054;BME280;32811;52.382;5.270;2023-03-12T11:30:17;100769.09;;;7.59;100.00
47054;BME280;32811;52.382;5.270;2023-03-12T11:32:47;100764.00;;;7.63;100.00
47054;BME280;32811;52.382;5.270;2023-03-12T11:35:17;100765.19;;;7.84;100.00
47054;BME280;32811;52.382;5.270;2023-03-12T11:56:48;100714.00;;;8.72;100.00
47054;BME280;32811;52.382;5.270;2023-03-12T12:10:19;100697.09;;;8.98;100.00
47054;BME280;32811;52.382;5.270;2023-03-12T12:13:09;100705.69;;;9.01;100.00
47054;BME280;32811;52.382;5.270;2023-03-12T12:27:20;100685.19;;;9.15;100.00
47054;BME280;32811;52.382;5.270;2023-03-12T12:46:04;100676.75;;;9.34;100.00
47054;BME280;32811;52.382;5.270;2023-03-12T12:51:03;100673.28;;;9.31;100.00
47054;BME280;32811;52.382;5.270;2023-03-12T12:53:39;100676.72;;;9.33;100.00
47054;BME280;32811;52.382;5.270;2023-03-12T12:59:16;100671.69;;;9.47;100.00
47054;BME280;32811;52.382;5.270;2023-03-12T13:01:47;100658.78;;;9.42;100.00
47054;BME280;32811;52.382;5.270;2023-03-12T13:04:23;100673.41;;;9.48;100.00
47054;BME280;32811;52.382;5.270;2023-03-12T13:06:56;100658.78;;;9.42;100.00
47054;BME280;32811;52.382;5.270;2023-03-12T13:09:41;100662.09;;;9.26;100.00
47054;BME280;32811;52.382;5.270;2023-03-12T13:12:13;100666.47;;;9.36;100.00
47054;BME280;32811;52.382;5.270;2023-03-12T13:14:44;100653.53;;;9.30;100.00
47054;BME280;32811;52.382;5.270;2023-03-12T13:17:20;100674.19;;;9.38;100.00
47054;BME280;32811;52.382;5.270;2023-03-12T13:19:50;100668.16;;;9.29;100.00
47054;BME280;32811;52.382;5.270;2023-03-12T13:28:36;100672.16;;;8.93;100.00
47054;BME280;32811;52.382;5.270;2023-03-12T13:33:59;100679.06;;;8.99;100.00
47054;BME280;32811;52.382;5.270;2023-03-12T13:36:37;100675.56;;;8.89;100.00
47054;BME280;32811;52.382;5.270;2023-03-12T13:41:38;100676.44;;;8.94;100.00
47054;BME280;32811;52.382;5.270;2023-03-12T13:57:44;100675.16;;;9.55;100.00
47054;BME280;32811;52.382;5.270;2023-03-12T14:00:19;100688.13;;;9.70;100.00
47054;BME280;32811;52.382;5.270;2023-03-12T14:17:00;100703.13;;;10.54;100.00
47054;BME280;32811;52.382;5.270;2023-03-12T14:19:29;100697.97;;;10.61;100.00
47054;BME280;32811;52.382;5.270;2023-03-12T14:22:03;100712.59;;;10.65;100.00
47054;BME280;32811;52.382;5.270;2023-03-12T14:24:34;100711.69;;;10.46;100.00
47054;BME280;32811;52.382;5.270;2023-03-12T14:27:04;100715.94;;;10.33;100.00
47054;BME280;32811;52.382;5.270;2023-03-12T14:29:38;100720.19;;;10.18;100.00
47054;BME280;32811;52.382;5.270;2023-03-12T14:32:14;100734.72;;;10.04;100.00
47054;BME280;32811;52.382;5.270;2023-03-12T14:34:44;100712.28;;;9.88;100.00
47054;BME280;32811;52.382;5.270;2023-03-12T14:37:16;100705.34;;;9.77;100.00
47054;BME280;32811;52.382;5.270;2023-03-12T14:39:50;100720.00;;;9.83;100.00
47054;BME280;32811;52.382;5.270;2023-03-12T14:42:31;100723.44;;;9.84;100.00
47054;BME280;32811;52.382;5.270;2023-03-12T14:45:17;100713.09;;;9.77;100.00
47054;BME280;32811;52.382;5.270;2023-03-12T14:47:48;100719.06;;;9.67;100.00
47054;BME280;32811;52.382;5.270;2023-03-12T14:50:20;100718.19;;;9.68;100.00
47054;BME280;32811;52.382;5.270;2023-03-12T14:52:48;100717.31;;;9.63;100.00
47054;BME280;32811;52.382;5.270;2023-03-12T14:55:22;100719.94;;;9.72;100.00
47054;BME280;32811;52.382;5.270;2023-03-12T14:58:04;100725.03;;;9.66;100.00
47054;BME280;32811;52.382;5.270;2023-03-12T15:00:31;100718.22;;;9.73;100.00
47054;BME280;32811;52.382;5.270;2023-03-12T15:03:02;100710.53;;;9.79;100.00
47054;BME280;32811;52.382;5.270;2023-03-12T15:05:29;100703.66;;;9.81;100.00
47054;BME280;32811;52.382;5.270;2023-03-12T15:08:01;100704.50;;;9.77;100.00
47054;BME280;32811;52.382;5.270;2023-03-12T15:10:30;100688.16;;;9.75;100.00
47054;BME280;32811;52.382;5.270;2023-03-12T15:12:58;100695.06;;;9.79;100.00
47054;BME280;32811;52.382;5.270;2023-03-12T15:15:38;100701.09;;;9.86;100.00
47054;BME280;32811;52.382;5.270;2023-03-12T15:18:17;100683.91;;;9.86;100.00
47054;BME280;32811;52.382;5.270;2023-03-12T15:20:46;100679.66;;;9.94;100.00
47054;BME280;32811;52.382;5.270;2023-03-12T15:23:14;100687.31;;;9.79;100.00
47054;BME280;32811;52.382;5.270;2023-03-12T15:25:41;100677.88;;;9.81;100.00